createdAt,value
2024-03-16T00:00:30.303Z,10.50
2024-03-16T00:03:01.694Z,10.50
2024-03-16T00:05:30.342Z,10.40
2024-03-16T00:07:59.362Z,10.40
2024-03-16T00:10:27.620Z,10.40
2024-03-16T00:12:56.274Z,10.40
2024-03-16T00:15:24.707Z,10.40
2024-03-16T00:17:53.988Z,10.00
2024-03-16T00:20:22.198Z,10.50
2024-03-16T00:22:50.456Z,10.60
2024-03-16T00:25:19.013Z,10.70
2024-03-16T00:27:47.350Z,11.10
2024-03-16T00:30:16.160Z,10.80
2024-03-16T00:32:44.420Z,10.80
2024-03-16T00:35:12.692Z,10.80
2024-03-16T00:37:40.856Z,10.80
2024-03-16T00:40:10.566Z,10.80
2024-03-16T00:42:38.878Z,10.70
2024-03-16T00:45:07.952Z,10.70
2024-03-16T00:47:36.359Z,10.60
2024-03-16T00:50:04.714Z,10.60
2024-03-16T00:52:32.977Z,10.50
2024-03-16T00:55:01.305Z,10.50
2024-03-16T00:57:29.888Z,10.40
2024-03-16T00:59:57.127Z,10.40
2024-03-16T01:02:25.402Z,10.40
2024-03-16T01:04:53.769Z,10.40
2024-03-16T01:07:21.914Z,10.40
2024-03-16T01:09:50.398Z,10.40
2024-03-16T01:12:18.639Z,10.30
2024-03-16T01:14:46.840Z,10.30
2024-03-16T01:17:16.367Z,10.30
2024-03-16T01:19:45.408Z,10.30
2024-03-16T01:22:13.749Z,10.20
2024-03-16T01:24:41.987Z,10.30
2024-03-16T01:27:10.216Z,10.30
2024-03-16T01:29:38.415Z,10.40
2024-03-16T01:32:09.493Z,10.40
2024-03-16T01:34:37.901Z,10.50
2024-03-16T01:37:06.447Z,10.50
2024-03-16T01:39:34.751Z,10.50
2024-03-16T01:42:04.490Z,10.80
2024-03-16T01:44:32.782Z,10.60
2024-03-16T01:47:00.957Z,10.60
2024-03-16T01:49:29.203Z,10.90
2024-03-16T01:51:57.532Z,10.60
2024-03-16T01:54:25.867Z,10.70
2024-03-16T01:56:54.171Z,10.70
2024-03-16T01:59:22.581Z,10.80
2024-03-16T02:01:50.817Z,10.80
2024-03-16T02:04:20.045Z,10.80
2024-03-16T02:06:50.433Z,10.80
2024-03-16T02:09:20.052Z,10.80
2024-03-16T02:11:50.802Z,10.80
2024-03-16T02:14:19.167Z,10.80
2024-03-16T02:16:49.170Z,10.80
2024-03-16T02:19:17.424Z,10.70
2024-03-16T02:21:45.816Z,10.70
2024-03-16T02:24:14.355Z,10.70
2024-03-16T02:26:42.825Z,10.70
2024-03-16T02:29:11.275Z,10.70
2024-03-16T02:31:39.489Z,10.80
2024-03-16T02:34:08.708Z,10.80
2024-03-16T02:36:37.000Z,10.80
2024-03-16T02:39:06.286Z,10.80
2024-03-16T02:41:34.630Z,10.80
2024-03-16T02:44:03.094Z,10.80
2024-03-16T02:46:31.456Z,10.80
2024-03-16T02:49:00.098Z,11.20
2024-03-16T02:51:28.835Z,10.80
2024-03-16T02:53:57.974Z,10.80
2024-03-16T02:56:26.273Z,10.80
2024-03-16T02:58:54.575Z,10.80
2024-03-16T03:01:23.191Z,10.80
2024-03-16T03:03:51.482Z,10.70
2024-03-16T03:06:19.778Z,10.80
2024-03-16T03:08:49.256Z,10.70
2024-03-16T03:11:17.537Z,10.80
2024-03-16T03:13:46.648Z,10.80
2024-03-16T03:16:20.247Z,10.70
2024-03-16T03:18:48.665Z,10.70
2024-03-16T03:21:16.899Z,10.70
2024-03-16T03:23:45.159Z,10.70
2024-03-16T03:26:13.327Z,10.70
2024-03-16T03:28:41.769Z,11.00
2024-03-16T03:31:10.153Z,10.70
2024-03-16T03:33:38.512Z,10.70
2024-03-16T03:36:07.038Z,10.70
2024-03-16T03:38:35.231Z,10.80
2024-03-16T03:41:03.456Z,10.70
2024-03-16T03:43:34.541Z,10.80
2024-03-16T03:46:02.926Z,10.80
2024-03-16T03:48:45.227Z,10.80
2024-03-16T03:51:14.000Z,10.80
2024-03-16T03:53:42.256Z,10.80
2024-03-16T03:56:10.405Z,11.10
2024-03-16T03:58:38.596Z,10.80
2024-03-16T04:01:06.899Z,10.70
2024-03-16T04:03:35.267Z,10.80
2024-03-16T04:06:03.647Z,10.70
2024-03-16T04:08:32.233Z,10.80
2024-03-16T04:11:02.377Z,10.70
2024-03-16T04:13:32.326Z,10.70
2024-03-16T04:16:00.965Z,10.70
2024-03-16T04:18:29.342Z,10.70
2024-03-16T04:20:57.586Z,10.70
2024-03-16T04:23:25.820Z,10.60
2024-03-16T04:25:54.136Z,10.60
2024-03-16T04:28:22.513Z,10.60
2024-03-16T04:30:50.966Z,10.60
2024-03-16T04:33:19.194Z,10.50
2024-03-16T04:35:47.536Z,10.50
2024-03-16T04:38:15.802Z,10.50
2024-03-16T04:40:44.756Z,10.40
2024-03-16T04:43:13.555Z,10.30
2024-03-16T04:45:41.909Z,10.00
2024-03-16T04:48:11.303Z,10.30
2024-03-16T04:50:40.439Z,10.20
2024-03-16T04:53:08.817Z,10.20
2024-03-16T04:55:37.367Z,10.00
2024-03-16T04:58:07.721Z,9.90
2024-03-16T05:00:36.347Z,10.10
2024-03-16T05:03:04.863Z,9.80
2024-03-16T05:05:33.068Z,9.70
2024-03-16T05:08:01.776Z,9.60
2024-03-16T05:10:30.764Z,9.60
2024-03-16T05:12:59.122Z,9.70
2024-03-16T05:15:27.554Z,9.70
2024-03-16T05:17:55.818Z,9.70
2024-03-16T05:20:24.083Z,9.70
2024-03-16T05:22:52.231Z,9.60
2024-03-16T05:25:20.477Z,9.60
2024-03-16T05:27:48.937Z,9.50
2024-03-16T05:30:17.708Z,9.50
2024-03-16T05:32:46.031Z,9.50
2024-03-16T05:35:15.080Z,9.50
2024-03-16T05:37:43.269Z,9.50
2024-03-16T05:40:12.500Z,9.50
2024-03-16T05:42:40.773Z,9.50
2024-03-16T05:45:09.557Z,9.60
2024-03-16T05:47:37.922Z,9.60
2024-03-16T05:50:06.589Z,9.60
2024-03-16T05:52:35.243Z,9.70
2024-03-16T05:55:03.429Z,9.60
2024-03-16T05:57:31.871Z,9.70
2024-03-16T06:00:00.488Z,9.70
2024-03-16T06:02:28.801Z,9.70
2024-03-16T06:04:57.183Z,9.90
2024-03-16T06:07:25.332Z,9.80
2024-03-16T06:09:53.602Z,9.70
2024-03-16T06:12:22.201Z,9.80
2024-03-16T06:14:50.888Z,9.80
2024-03-16T06:17:19.174Z,10.00
2024-03-16T06:19:51.087Z,10.20
2024-03-16T06:22:20.310Z,10.60
2024-03-16T06:24:48.920Z,11.10
2024-03-16T06:27:22.307Z,11.70
2024-03-16T06:29:54.007Z,12.20
2024-03-16T06:32:22.694Z,13.20
2024-03-16T06:34:50.979Z,13.60
2024-03-16T06:37:19.438Z,13.40
2024-03-16T06:39:48.415Z,13.50
2024-03-16T06:42:17.024Z,13.10
2024-03-16T06:44:45.401Z,13.20
2024-03-16T06:47:13.719Z,12.90
2024-03-16T06:49:41.890Z,12.50
2024-03-16T06:52:10.734Z,12.10
2024-03-16T06:54:39.043Z,11.90
2024-03-16T06:57:07.526Z,11.70
2024-03-16T06:59:35.901Z,11.60
2024-03-16T07:02:04.320Z,11.40
2024-03-16T07:04:32.496Z,11.60
2024-03-16T07:07:00.825Z,11.50
2024-03-16T07:09:29.126Z,11.40
2024-03-16T07:11:57.560Z,11.40
2024-03-16T07:14:26.077Z,11.50
2024-03-16T07:16:54.228Z,11.60
2024-03-16T07:19:24.479Z,11.50
2024-03-16T07:21:52.864Z,11.40
2024-03-16T07:24:21.109Z,11.40
2024-03-16T07:26:49.543Z,11.40
2024-03-16T07:29:17.928Z,11.50
2024-03-16T07:31:46.331Z,11.40
2024-03-16T07:34:14.651Z,11.40
2024-03-16T07:36:43.008Z,11.30
2024-03-16T07:39:12.364Z,11.40
2024-03-16T07:41:40.700Z,11.40
2024-03-16T07:44:08.916Z,11.40
2024-03-16T07:46:37.188Z,11.50
2024-03-16T07:49:09.542Z,11.40
2024-03-16T07:51:38.544Z,11.50
2024-03-16T07:54:10.241Z,11.50
2024-03-16T07:56:38.599Z,11.50
2024-03-16T07:59:07.238Z,11.60
2024-03-16T08:01:35.543Z,11.60
2024-03-16T08:04:03.949Z,11.60
2024-03-16T08:06:32.244Z,11.60
2024-03-16T08:09:00.843Z,11.80
2024-03-16T08:11:31.424Z,11.80
2024-03-16T08:13:59.614Z,11.90
2024-03-16T08:16:28.094Z,11.80
2024-03-16T08:18:56.494Z,11.90
2024-03-16T08:21:24.824Z,11.80
2024-03-16T08:23:53.055Z,11.90
2024-03-16T08:26:21.342Z,11.80
2024-03-16T08:28:49.601Z,11.70
2024-03-16T08:31:18.136Z,11.70
2024-03-16T08:33:46.363Z,11.80
2024-03-16T08:36:16.237Z,11.80
2024-03-16T08:38:44.488Z,11.80
2024-03-16T08:41:12.814Z,11.80
2024-03-16T08:43:41.031Z,11.90
2024-03-16T08:46:09.412Z,12.00
2024-03-16T08:48:37.739Z,12.00
2024-03-16T08:51:06.705Z,12.10
2024-03-16T08:53:34.889Z,12.10
2024-03-16T08:56:07.838Z,12.10
2024-03-16T08:58:36.225Z,12.20
2024-03-16T09:01:06.151Z,12.30
2024-03-16T09:03:34.668Z,12.30
2024-03-16T09:06:03.253Z,12.40
2024-03-16T09:08:32.269Z,12.40
2024-03-16T09:11:00.499Z,12.60
2024-03-16T09:13:30.814Z,13.00
2024-03-16T09:15:59.221Z,13.20
2024-03-16T09:18:27.537Z,13.40
2024-03-16T09:20:55.879Z,13.60
2024-03-16T09:23:24.098Z,13.90
2024-03-16T09:25:56.257Z,13.90
2024-03-16T09:28:24.530Z,13.90
2024-03-16T09:30:56.581Z,14.10
2024-03-16T09:33:25.357Z,14.00
2024-03-16T09:35:54.894Z,14.20
2024-03-16T09:38:24.254Z,14.20
2024-03-16T09:40:57.245Z,14.30
